createdAt,value
2022-11-20T00:01:15.388Z,100032.00
2022-11-20T00:03:42.568Z,100033.81
2022-11-20T00:06:12.376Z,100032.06
2022-11-20T00:08:39.238Z,100014.94
2022-11-20T00:11:16.815Z,100037.28
2022-11-20T00:13:50.498Z,100035.44
2022-11-20T00:16:20.118Z,100027.63
2022-11-20T00:18:47.394Z,100029.31
2022-11-20T00:21:17.479Z,100020.03
2022-11-20T00:23:44.357Z,100036.44
2022-11-20T00:26:13.695Z,100049.28
2022-11-20T00:28:40.809Z,100038.88
2022-11-20T00:31:10.408Z,100038.88
2022-11-20T00:33:37.125Z,100039.75
2022-11-20T00:36:06.744Z,100035.44
2022-11-20T00:38:33.965Z,100030.22
2022-11-20T00:41:02.456Z,100025.88
2022-11-20T00:43:29.316Z,100034.59
2022-11-20T00:46:04.409Z,100024.19
2022-11-20T00:48:31.513Z,100006.69
2022-11-20T00:50:58.806Z,100008.44
2022-11-20T00:53:25.968Z,100007.59
2022-11-20T00:56:04.270Z,100011.16
2022-11-20T00:58:36.422Z,100017.28
2022-11-20T01:01:09.055Z,99989.63
2022-11-20T01:03:37.752Z,99991.31
2022-11-20T01:06:10.665Z,100008.50
2022-11-20T01:08:38.045Z,99984.41
2022-11-20T01:11:10.502Z,100022.56
2022-11-20T01:13:38.716Z,99996.53
2022-11-20T01:16:05.395Z,100003.44
2022-11-20T01:18:32.779Z,100000.00
2022-11-20T01:21:08.331Z,100013.91
2022-11-20T01:23:36.481Z,100020.00
2022-11-20T01:26:05.413Z,100009.66
2022-11-20T01:28:32.406Z,100010.53
2022-11-20T01:30:59.670Z,100020.00
2022-11-20T01:33:26.747Z,100013.06
2022-11-20T01:35:53.847Z,100016.56
2022-11-20T01:38:21.465Z,100008.78
2022-11-20T01:40:55.448Z,100010.47
2022-11-20T01:43:22.363Z,99978.59
2022-11-20T01:45:58.165Z,100010.66
2022-11-20T01:48:29.384Z,100011.56
2022-11-20T01:50:56.738Z,100006.41
2022-11-20T01:53:29.094Z,100000.31
2022-11-20T01:55:59.201Z,100003.00
2022-11-20T01:58:31.270Z,99997.81
2022-11-20T02:00:57.923Z,100001.34
2022-11-20T02:03:24.974Z,100011.75
2022-11-20T02:05:58.907Z,99965.03
2022-11-20T02:08:25.550Z,99959.69
2022-11-20T02:10:52.129Z,99977.63
2022-11-20T02:13:37.333Z,99989.81
2022-11-20T02:16:04.903Z,99993.34
2022-11-20T02:18:31.840Z,100003.78
2022-11-20T02:21:21.558Z,100006.41
2022-11-20T02:24:10.219Z,99996.78
2022-11-20T02:26:50.609Z,99988.94
2022-11-20T02:29:24.214Z,99993.22
2022-11-20T02:31:51.476Z,99975.91
2022-11-20T02:34:18.001Z,99946.59
2022-11-20T02:36:46.072Z,99974.16
2022-11-20T02:39:14.343Z,99951.78
2022-11-20T02:41:40.966Z,99969.81
2022-11-20T02:44:07.611Z,99976.78
2022-11-20T02:46:34.681Z,99969.03
2022-11-20T02:49:03.473Z,99981.09
2022-11-20T02:51:30.404Z,99978.41
2022-11-20T02:53:57.066Z,99987.13
2022-11-20T02:56:24.116Z,99989.78
2022-11-20T02:58:50.963Z,99996.69
2022-11-20T03:01:17.626Z,99999.31
2022-11-20T03:03:44.245Z,99988.94
2022-11-20T03:06:10.809Z,99983.66
2022-11-20T03:08:37.372Z,99988.97
2022-11-20T03:11:08.279Z,99985.47
2022-11-20T03:13:35.450Z,99948.31
2022-11-20T03:16:13.982Z,99971.50
2022-11-20T03:18:41.730Z,99963.75
2022-11-20T03:21:09.031Z,99968.31
2022-11-20T03:23:36.371Z,99972.69
2022-11-20T03:26:29.367Z,99983.19
2022-11-20T03:28:58.409Z,99981.59
2022-11-20T03:31:27.267Z,99985.06
2022-11-20T03:33:54.242Z,99984.25
2022-11-20T03:36:21.932Z,99973.84
2022-11-20T03:38:49.331Z,99978.97
2022-11-20T03:41:19.207Z,99981.59
2022-11-20T03:43:53.358Z,99984.03
2022-11-20T03:46:20.782Z,99976.22
2022-11-20T03:48:51.553Z,99977.09
2022-11-20T03:51:22.783Z,99939.19
2022-11-20T03:53:52.245Z,99968.53
2022-11-20T03:56:21.384Z,99978.91
2022-11-20T03:58:48.007Z,99960.78
2022-11-20T04:01:17.538Z,99962.59
2022-11-20T04:03:45.296Z,99950.53
2022-11-20T04:06:20.560Z,99929.75
2022-11-20T04:08:52.367Z,99959.84
2022-11-20T04:11:27.884Z,99961.53
2022-11-20T04:14:02.711Z,99966.63
2022-11-20T04:16:37.203Z,99977.78
2022-11-20T04:19:07.169Z,99970.00
2022-11-20T04:21:34.058Z,99949.22
2022-11-20T04:24:00.693Z,99947.53
2022-11-20T04:26:28.927Z,99944.00
2022-11-20T04:28:56.058Z,99937.94
2022-11-20T04:31:29.154Z,99931.19
2022-11-20T04:33:55.845Z,99955.47
2022-11-20T04:36:24.745Z,99950.31
2022-11-20T04:38:56.868Z,99946.00
2022-11-20T04:41:29.057Z,99943.41
2022-11-20T04:44:00.734Z,99927.91
2022-11-20T04:46:28.234Z,99946.81
2022-11-20T04:48:55.519Z,99908.88
2022-11-20T04:51:22.646Z,99945.81
2022-11-20T04:53:49.302Z,99928.59
2022-11-20T04:56:16.230Z,99939.81
2022-11-20T04:58:43.117Z,99920.56
2022-11-20T05:01:15.448Z,99936.13
2022-11-20T05:03:43.154Z,99937.06
2022-11-20T05:06:11.785Z,99942.38
2022-11-20T05:08:38.422Z,99939.81
2022-11-20T05:11:07.551Z,99935.53
2022-11-20T05:13:34.153Z,99937.28
2022-11-20T05:16:13.152Z,99943.44
2022-11-20T05:18:41.107Z,99904.66
2022-11-20T05:21:09.248Z,99941.69
2022-11-20T05:23:36.900Z,99933.03
2022-11-20T05:26:04.639Z,99928.72
2022-11-20T05:28:31.922Z,99925.19
2022-11-20T05:31:09.052Z,99927.72
2022-11-20T05:33:36.566Z,99898.44
2022-11-20T05:36:06.295Z,99913.16
2022-11-20T05:38:33.192Z,99907.91
2022-11-20T05:41:17.149Z,99903.59
2022-11-20T05:43:45.811Z,99938.97
2022-11-20T05:46:15.101Z,99943.31
2022-11-20T05:48:43.530Z,99938.19
2022-11-20T05:51:13.606Z,99946.84
2022-11-20T05:53:43.851Z,99937.38
2022-11-20T05:56:17.574Z,99942.63
2022-11-20T05:58:44.726Z,99928.75
2022-11-20T06:01:14.446Z,99934.75
2022-11-20T06:03:43.298Z,99907.97
2022-11-20T06:06:09.818Z,99925.09
2022-11-20T06:08:36.300Z,99926.81
2022-11-20T06:11:07.633Z,99923.38
2022-11-20T06:13:39.184Z,99896.63
2022-11-20T06:16:08.595Z,99922.34
2022-11-20T06:18:35.229Z,99932.75
2022-11-20T06:21:07.883Z,99920.72
2022-11-20T06:23:35.493Z,99920.56
2022-11-20T06:26:07.328Z,99882.63
2022-11-20T06:28:34.182Z,99919.69
2022-11-20T06:31:00.695Z,99923.19
2022-11-20T06:33:27.951Z,99892.19
2022-11-20T06:36:00.881Z,99922.31
2022-11-20T06:38:28.910Z,99923.34
2022-11-20T06:40:55.524Z,99913.09
2022-11-20T06:43:22.905Z,99931.16
2022-11-20T06:45:57.390Z,99931.09
2022-11-20T06:48:25.006Z,99925.97
2022-11-20T06:50:51.707Z,99947.69
2022-11-20T06:53:18.312Z,99921.81
2022-11-20T06:55:46.417Z,99935.53
2022-11-20T06:58:14.057Z,99930.28
2022-11-20T07:00:40.871Z,99937.16
2022-11-20T07:03:09.719Z,99932.75
2022-11-20T07:05:36.833Z,99927.63
2022-11-20T07:08:04.388Z,99898.41
2022-11-20T07:10:31.360Z,99923.34
2022-11-20T07:12:58.198Z,99929.16
2022-11-20T07:15:26.479Z,99931.50
2022-11-20T07:17:53.413Z,99935.00
2022-11-20T07:20:20.190Z,99926.28
2022-11-20T07:22:46.700Z,99928.75
2022-11-20T07:25:13.312Z,99931.38
2022-11-20T07:27:40.099Z,99928.03
2022-11-20T07:30:07.794Z,99932.34
2022-11-20T07:32:34.376Z,99920.91
2022-11-20T07:35:00.949Z,99911.31
2022-11-20T07:37:27.504Z,99928.41
2022-11-20T07:39:54.020Z,99927.56
2022-11-20T07:42:20.647Z,99924.09
2022-11-20T07:44:47.179Z,99921.47
2022-11-20T07:47:13.772Z,99924.09
2022-11-20T07:49:40.420Z,99937.13
2022-11-20T07:52:07.034Z,99939.72
2022-11-20T07:54:33.556Z,99914.78
2022-11-20T07:57:00.154Z,99939.69
2022-11-20T07:59:26.727Z,99935.38
2022-11-20T08:01:53.337Z,99944.91
2022-11-20T08:04:19.935Z,99950.13
2022-11-20T08:06:46.548Z,99954.50
2022-11-20T08:09:13.218Z,99959.69
2022-11-20T08:11:58.426Z,99959.69
2022-11-20T08:14:25.046Z,99957.13
2022-11-20T08:16:51.620Z,99955.31
2022-11-20T08:19:19.332Z,99960.56
2022-11-20T08:21:46.154Z,99955.31
2022-11-20T08:24:13.100Z,99918.19
2022-11-20T08:26:41.008Z,99966.50
2022-11-20T08:29:13.131Z,99956.16
2022-11-20T08:31:39.790Z,99972.50
2022-11-20T08:34:09.225Z,99967.19
2022-11-20T08:36:36.915Z,99979.28
2022-11-20T08:39:04.373Z,99974.06
2022-11-20T08:41:33.806Z,99964.47
2022-11-20T08:44:02.868Z,99974.81
2022-11-20T08:46:36.458Z,99949.75
2022-11-20T08:49:03.488Z,99978.19
2022-11-20T08:51:30.360Z,99976.53
2022-11-20T08:53:57.230Z,99979.09
2022-11-20T08:56:24.157Z,99982.59
2022-11-20T08:59:20.179Z,99986.91
2022-11-20T09:01:41.765Z,99985.00
2022-11-20T09:04:08.337Z,99974.47
2022-11-20T09:06:34.876Z,99980.34
2022-11-20T09:09:06.368Z,99981.09
2022-11-20T09:11:33.654Z,99965.09
2022-11-20T09:14:01.073Z,99968.97
2022-11-20T09:16:27.647Z,99973.88
2022-11-20T09:19:13.516Z,99973.91
2022-11-20T09:21:40.992Z,99978.56
2022-11-20T09:24:07.737Z,99983.13
2022-11-20T09:26:34.273Z,99973.72
2022-11-20T09:29:00.836Z,99952.06
2022-11-20T09:31:27.526Z,99968.97
2022-11-20T09:33:54.382Z,99975.63
2022-11-20T09:36:21.034Z,99983.94
2022-11-20T09:38:48.936Z,99970.53
2022-11-20T09:41:24.422Z,99985.66
2022-11-20T09:44:17.225Z,99983.06
2022-11-20T09:46:50.108Z,99956.16
2022-11-20T09:49:37.867Z,99974.66
2022-11-20T09:52:29.701Z,99972.75
2022-11-20T09:54:56.330Z,99965.75
2022-11-20T09:57:30.752Z,99970.81
2022-11-20T10:00:01.837Z,99969.44
2022-11-20T10:02:44.794Z,99960.47
2022-11-20T10:05:40.721Z,99970.41
2022-11-20T10:08:51.315Z,99968.78
2022-11-20T10:11:39.525Z,99971.91
2022-11-20T10:14:14.848Z,99943.34
2022-11-20T10:16:53.360Z,99963.19
2022-11-20T10:19:48.191Z,99959.00
2022-11-20T10:22:26.678Z,99958.19
2022-11-20T10:25:02.241Z,99956.91
2022-11-20T10:27:47.238Z,99950.25
2022-11-20T10:30:16.728Z,99954.22
2022-11-20T10:32:59.541Z,99956.56
2022-11-20T10:35:42.765Z,99920.34
2022-11-20T10:38:38.481Z,99947.53
2022-11-20T10:41:25.477Z,99939.09
2022-11-20T10:44:03.666Z,99929.19
2022-11-20T10:46:38.612Z,99946.28
2022-11-20T10:49:12.559Z,99932.16
2022-11-20T10:51:52.400Z,99938.78
2022-11-20T10:54:28.483Z,99935.00
2022-11-20T10:57:04.985Z,99929.47
2022-11-20T11:00:10.746Z,99933.50
2022-11-20T11:02:44.177Z,99924.75
2022-11-20T11:05:30.874Z,99923.72
2022-11-20T11:07:59.652Z,99918.84
2022-11-20T11:10:53.949Z,99882.41
2022-11-20T11:13:21.752Z,99927.72
2022-11-20T11:15:48.779Z,99917.00
2022-11-20T11:18:26.086Z,99926.75
2022-11-20T11:20:53.501Z,99912.44
2022-11-20T11:23:32.624Z,99913.38
2022-11-20T11:26:01.271Z,99912.53
2022-11-20T11:28:28.970Z,99884.84
2022-11-20T11:30:56.827Z,99911.44
2022-11-20T11:33:31.874Z,99896.81
2022-11-20T11:36:01.801Z,99897.69
2022-11-20T11:38:32.416Z,99832.16
2022-11-20T11:40:59.461Z,99888.88
2022-11-20T11:43:48.349Z,99888.63
2022-11-20T11:46:34.735Z,99881.25
2022-11-20T11:49:10.293Z,99880.66
2022-11-20T11:52:14.896Z,99881.84
2022-11-20T11:54:48.352Z,99883.28
2022-11-20T11:57:35.025Z,99887.25
2022-11-20T12:00:18.185Z,99874.59
2022-11-20T12:02:48.859Z,99867.56
2022-11-20T12:05:30.301Z,99867.31
2022-11-20T12:08:15.443Z,99864.56
2022-11-20T12:10:57.118Z,99856.16
2022-11-20T12:13:45.043Z,99861.72
2022-11-20T12:16:17.197Z,99846.53
2022-11-20T12:18:43.956Z,99845.72
2022-11-20T12:21:23.128Z,99849.28
2022-11-20T12:24:16.135Z,99853.97
2022-11-20T12:26:54.806Z,99854.97
2022-11-20T12:30:00.970Z,99853.41
2022-11-20T12:32:51.581Z,99850.53
2022-11-20T12:35:33.031Z,99844.47
2022-11-20T12:38:43.523Z,99853.28
2022-11-20T12:41:39.099Z,99856.06
2022-11-20T12:45:00.660Z,99857.16
2022-11-20T12:47:52.922Z,99857.16
2022-11-20T12:51:00.257Z,99810.31
2022-11-20T12:53:39.709Z,99843.66
2022-11-20T12:56:51.309Z,99840.75
2022-11-20T12:59:35.920Z,99845.16
2022-11-20T13:02:39.782Z,99842.63
2022-11-20T13:05:06.335Z,99843.66
2022-11-20T13:07:36.315Z,99812.78
2022-11-20T13:10:08.741Z,99832.44
2022-11-20T13:12:47.706Z,99830.34
2022-11-20T13:15:39.258Z,99825.75
2022-11-20T13:18:11.633Z,99822.88
2022-11-20T13:20:44.027Z,99817.56
2022-11-20T13:23:10.954Z,99821.84
2022-11-20T13:25:41.326Z,99813.16
2022-11-20T13:28:11.064Z,99815.53
2022-11-20T13:30:49.720Z,99801.47
2022-11-20T13:33:45.804Z,99794.25
2022-11-20T13:36:25.653Z,99782.78
2022-11-20T13:38:54.399Z,99793.50
2022-11-20T13:41:38.959Z,99791.59
2022-11-20T13:44:11.991Z,99792.34
2022-11-20T13:46:45.611Z,99788.13
2022-11-20T13:49:27.007Z,99796.19
2022-11-20T13:52:06.888Z,99793.50
2022-11-20T13:54:39.140Z,99788.16
2022-11-20T13:57:52.985Z,99784.84
2022-11-20T14:00:25.641Z,99791.66
2022-11-20T14:03:06.165Z,99784.78
2022-11-20T14:05:37.257Z,99784.97
2022-11-20T14:08:13.673Z,99793.63
2022-11-20T14:10:40.583Z,99787.53
2022-11-20T14:13:19.891Z,99747.91
2022-11-20T14:15:46.652Z,99773.66
2022-11-20T14:18:22.989Z,99773.66
2022-11-20T14:20:49.946Z,99773.66
2022-11-20T14:23:30.161Z,99760.03
2022-11-20T14:25:57.152Z,99731.06
2022-11-20T14:28:31.831Z,99751.53
2022-11-20T14:30:59.188Z,99752.34
2022-11-20T14:33:28.108Z,99753.91
2022-11-20T14:35:56.911Z,99749.38
2022-11-20T14:38:28.036Z,99745.03
2022-11-20T14:40:54.662Z,99744.00
2022-11-20T14:43:28.802Z,99738.59
2022-11-20T14:46:04.410Z,99751.63
2022-11-20T14:48:53.196Z,99706.38
2022-11-20T14:51:35.805Z,99743.94
2022-11-20T14:54:15.125Z,99752.03
2022-11-20T14:56:42.326Z,99718.31
2022-11-20T14:59:10.665Z,99720.56
2022-11-20T15:01:38.395Z,99718.53
2022-11-20T15:04:12.144Z,99729.72
2022-11-20T15:06:51.506Z,99728.78
2022-11-20T15:09:18.094Z,99648.94
2022-11-20T15:12:02.460Z,99709.66
2022-11-20T15:14:31.485Z,99712.22
2022-11-20T15:16:58.185Z,99677.09
2022-11-20T15:19:26.635Z,99703.44
2022-11-20T15:21:53.916Z,99697.06
2022-11-20T15:24:21.746Z,99697.16
2022-11-20T15:26:48.873Z,99695.28
2022-11-20T15:29:22.068Z,99693.59
2022-11-20T15:31:48.828Z,99697.00
2022-11-20T15:34:16.656Z,99674.84
2022-11-20T15:36:44.750Z,99694.81
2022-11-20T15:39:12.700Z,99695.81
2022-11-20T15:41:39.784Z,99694.25
2022-11-20T15:44:06.744Z,99690.81
2022-11-20T15:46:39.574Z,99675.28
2022-11-20T15:49:10.015Z,99683.75
2022-11-20T15:51:39.587Z,99681.81
2022-11-20T15:54:14.313Z,99672.94
2022-11-20T15:56:41.024Z,99671.00
2022-11-20T15:59:08.019Z,99668.28
2022-11-20T16:01:35.199Z,99668.00
2022-11-20T16:04:02.239Z,99661.78
2022-11-20T16:06:28.860Z,99658.22
2022-11-20T16:08:55.563Z,99664.97
2022-11-20T16:11:22.331Z,99634.84
2022-11-20T16:14:07.160Z,99636.56
2022-11-20T16:16:38.688Z,99651.84
2022-11-20T16:19:05.420Z,99652.72
2022-11-20T16:21:32.619Z,99644.84
2022-11-20T16:24:07.033Z,99646.41
2022-11-20T16:26:34.272Z,99642.06
2022-11-20T16:29:02.194Z,99640.44
2022-11-20T16:31:29.238Z,99627.38
2022-11-20T16:33:58.079Z,99621.13
2022-11-20T16:36:26.624Z,99622.72
2022-11-20T16:39:01.002Z,99609.66
2022-11-20T16:41:30.706Z,99608.81
2022-11-20T16:43:59.500Z,99592.41
2022-11-20T16:46:28.255Z,99602.53
2022-11-20T16:48:57.655Z,99606.06
2022-11-20T16:51:25.346Z,99591.50
2022-11-20T16:53:53.300Z,99594.72
2022-11-20T16:56:21.935Z,99596.31
2022-11-20T16:58:50.987Z,99597.84
2022-11-20T17:01:21.409Z,99598.69
2022-11-20T17:03:55.498Z,99605.78
2022-11-20T17:06:26.870Z,99602.69
2022-11-20T17:08:55.329Z,99588.22
2022-11-20T17:11:22.207Z,99594.47
2022-11-20T17:13:49.161Z,99587.25
2022-11-20T17:16:21.273Z,99593.56
2022-11-20T17:18:50.000Z,99582.56
2022-11-20T17:21:18.496Z,99586.03
2022-11-20T17:23:46.262Z,99580.13
2022-11-20T17:26:19.813Z,99574.88
2022-11-20T17:28:47.924Z,99568.00
2022-11-20T17:31:17.447Z,99531.66
2022-11-20T17:33:45.590Z,99577.03
2022-11-20T17:36:15.265Z,99569.91
2022-11-20T17:38:42.547Z,99542.22
2022-11-20T17:41:11.575Z,99531.19
2022-11-20T17:43:38.657Z,99543.66
2022-11-20T17:46:06.957Z,99558.41
2022-11-20T17:48:34.416Z,99539.03
2022-11-20T17:51:02.565Z,99537.19
2022-11-20T17:53:32.937Z,99537.19
2022-11-20T17:56:17.968Z,99535.38
2022-11-20T17:58:44.816Z,99534.41
2022-11-20T18:01:11.754Z,99519.59
2022-11-20T18:03:38.465Z,99524.56
2022-11-20T18:06:10.648Z,99509.72
2022-11-20T18:08:37.572Z,99519.78
2022-11-20T18:11:15.740Z,99514.47
2022-11-20T18:14:02.432Z,99513.44
2022-11-20T18:16:31.541Z,99505.41
2022-11-20T18:18:58.632Z,99499.19
2022-11-20T18:21:27.215Z,99484.31
2022-11-20T18:23:55.999Z,99461.78
2022-11-20T18:26:23.630Z,99478.03
2022-11-20T18:28:50.444Z,99465.63
2022-11-20T18:31:17.456Z,99472.38
2022-11-20T18:33:44.212Z,99460.31
2022-11-20T18:36:15.432Z,99456.84
2022-11-20T18:38:46.220Z,99457.88
2022-11-20T18:41:33.590Z,99429.28
2022-11-20T18:44:24.709Z,99448.75
2022-11-20T18:46:51.363Z,99452.22
2022-11-20T18:49:18.352Z,99438.50
2022-11-20T18:51:44.918Z,99444.41
2022-11-20T18:54:12.967Z,99443.56
2022-11-20T18:56:39.981Z,99424.66
2022-11-20T18:59:09.489Z,99437.59
2022-11-20T19:01:36.890Z,99434.19
2022-11-20T19:04:08.290Z,99407.66
2022-11-20T19:06:36.820Z,99422.63
2022-11-20T19:09:10.398Z,99422.69
2022-11-20T19:11:37.956Z,99422.53
2022-11-20T19:14:05.190Z,99420.72
2022-11-20T19:16:31.775Z,99427.56
2022-11-20T19:19:03.529Z,99417.84
2022-11-20T19:21:30.905Z,99426.56
2022-11-20T19:23:59.726Z,99417.13
2022-11-20T19:26:26.875Z,99407.66
2022-11-20T19:28:53.934Z,99425.66
2022-11-20T19:31:24.845Z,99421.25
2022-11-20T19:33:59.813Z,99412.53
2022-11-20T19:36:43.202Z,99413.38
2022-11-20T19:39:11.683Z,99411.06
2022-11-20T19:41:39.663Z,99400.91
2022-11-20T19:44:14.925Z,99398.22
2022-11-20T19:46:42.072Z,99388.41
2022-11-20T19:49:11.578Z,99390.06
2022-11-20T19:51:43.462Z,99395.25
2022-11-20T19:54:10.063Z,99391.88
2022-11-20T19:56:36.985Z,99387.31
2022-11-20T19:59:03.679Z,99380.34
2022-11-20T20:01:31.547Z,99379.44
2022-11-20T20:04:05.376Z,99379.44
2022-11-20T20:06:35.000Z,99380.41
2022-11-20T20:09:13.413Z,99350.41
2022-11-20T20:11:41.099Z,99352.97
2022-11-20T20:14:15.955Z,99354.75
2022-11-20T20:16:43.069Z,99367.75
2022-11-20T20:19:14.376Z,99368.53
2022-11-20T20:21:41.517Z,99333.34
2022-11-20T20:24:10.323Z,99358.94
2022-11-20T20:26:37.475Z,99341.50
2022-11-20T20:29:04.507Z,99344.13
2022-11-20T20:31:33.927Z,99342.34
2022-11-20T20:34:01.485Z,99345.03
2022-11-20T20:36:28.129Z,99342.34
2022-11-20T20:38:56.213Z,99345.81
2022-11-20T20:41:25.367Z,99359.00
2022-11-20T20:44:15.291Z,99342.41
2022-11-20T20:46:42.188Z,99309.84
2022-11-20T20:49:08.981Z,99352.72
2022-11-20T20:51:36.066Z,99346.75
2022-11-20T20:54:06.450Z,99349.44
2022-11-20T20:56:36.528Z,99352.13
2022-11-20T20:59:04.221Z,99364.94
2022-11-20T21:01:31.073Z,99358.72
2022-11-20T21:04:00.556Z,99362.94
2022-11-20T21:06:27.186Z,99342.34
2022-11-20T21:08:55.874Z,99357.00
2022-11-20T21:11:22.428Z,99352.59
2022-11-20T21:13:52.395Z,99360.47
2022-11-20T21:16:22.277Z,99354.22
2022-11-20T21:18:49.141Z,99326.78
2022-11-20T21:21:35.732Z,99324.81
2022-11-20T21:24:03.061Z,99349.75
2022-11-20T21:26:29.697Z,99333.44
2022-11-20T21:28:59.321Z,99336.84
2022-11-20T21:31:26.796Z,99346.75
2022-11-20T21:33:54.971Z,99350.22
2022-11-20T21:36:24.062Z,99335.31
2022-11-20T21:38:52.243Z,99327.75
2022-11-20T21:41:18.825Z,99348.69
2022-11-20T21:43:45.681Z,99344.31
2022-11-20T21:46:14.549Z,99350.41
2022-11-20T21:48:43.028Z,99348.50
2022-11-20T21:51:11.936Z,99357.25
2022-11-20T21:53:38.579Z,99351.31
2022-11-20T21:56:07.796Z,99359.00
2022-11-20T21:58:35.719Z,99350.28
2022-11-20T22:01:13.747Z,99289.56
2022-11-20T22:03:41.226Z,99347.41
2022-11-20T22:06:09.379Z,99353.16
2022-11-20T22:08:37.163Z,99342.94
2022-11-20T22:11:15.555Z,99349.19
2022-11-20T22:14:00.779Z,99336.25
2022-11-20T22:16:27.593Z,99289.03
2022-11-20T22:18:55.881Z,99276.16
2022-11-20T22:21:25.098Z,99310.97
2022-11-20T22:23:52.330Z,99303.94
2022-11-20T22:26:21.582Z,99312.69
2022-11-20T22:28:51.012Z,99310.00
2022-11-20T22:31:18.702Z,99303.16
2022-11-20T22:33:45.542Z,99305.66
2022-11-20T22:36:14.372Z,99315.38
2022-11-20T22:38:41.569Z,99306.81
2022-11-20T22:41:10.939Z,99309.44
2022-11-20T22:43:38.331Z,99282.94
2022-11-20T22:46:09.006Z,99304.13
2022-11-20T22:48:35.966Z,99307.31
2022-11-20T22:51:16.868Z,99275.78
2022-11-20T22:53:44.236Z,99314.06
2022-11-20T22:56:14.981Z,99326.34
2022-11-20T22:58:42.738Z,99313.13
2022-11-20T23:01:15.058Z,99311.44
2022-11-20T23:03:44.144Z,99305.34
2022-11-20T23:06:11.217Z,99278.91
2022-11-20T23:08:38.817Z,99319.31
2022-11-20T23:11:13.796Z,99324.81
2022-11-20T23:13:41.158Z,99323.06
2022-11-20T23:16:13.809Z,99319.31
2022-11-20T23:18:41.407Z,99324.69
2022-11-20T23:21:16.373Z,99334.97
2022-11-20T23:23:44.137Z,99331.44
2022-11-20T23:26:12.564Z,99334.41
2022-11-20T23:28:40.509Z,99331.78
2022-11-20T23:31:07.935Z,99326.53
2022-11-20T23:33:39.414Z,99324.81
2022-11-20T23:36:06.731Z,99317.06
2022-11-20T23:38:34.123Z,99283.78
2022-11-20T23:41:01.109Z,99303.22
2022-11-20T23:43:28.560Z,99317.88
2022-11-20T23:45:59.874Z,99310.91
2022-11-20T23:48:29.181Z,99320.25
2022-11-20T23:50:56.008Z,99314.97
2022-11-20T23:53:23.091Z,99318.53
2022-11-20T23:55:51.548Z,99320.31
2022-11-20T23:58:18.362Z,99314.25
